createdAt,value
2019-05-06T00:00:55.340Z,88.50
2019-05-06T00:03:13.938Z,90.10
2019-05-06T00:05:40.574Z,90.20
2019-05-06T00:15:57.585Z,90.80
2019-05-06T00:18:24.639Z,91.10
2019-05-06T00:20:51.628Z,91.30
2019-05-06T00:23:18.289Z,90.90
2019-05-06T00:25:53.524Z,91.00
2019-05-06T00:28:20.154Z,90.50
2019-05-06T00:30:47.028Z,90.60
2019-05-06T00:33:13.675Z,90.60
2019-05-06T00:35:40.497Z,91.00
2019-05-06T00:38:08.046Z,90.90
2019-05-06T00:40:34.661Z,91.00
2019-05-06T00:43:04.872Z,91.40
2019-05-06T00:45:34.381Z,91.90
2019-05-06T00:48:04.626Z,91.50
2019-05-06T00:50:34.817Z,91.30
2019-05-06T00:53:02.053Z,91.70
2019-05-06T00:55:30.974Z,92.10
2019-05-06T00:57:58.791Z,90.50
2019-05-06T01:00:27.149Z,90.50
2019-05-06T01:02:56.557Z,90.10
2019-05-06T01:05:24.455Z,90.20
2019-05-06T01:07:55.555Z,88.80
2019-05-06T01:10:24.193Z,90.70
2019-05-06T01:12:50.847Z,90.70
2019-05-06T01:15:20.538Z,90.70
2019-05-06T01:17:49.195Z,90.40
2019-05-06T01:20:16.236Z,91.00
2019-05-06T01:22:46.577Z,90.90
2019-05-06T01:25:14.215Z,92.10
2019-05-06T01:27:44.670Z,92.80
2019-05-06T01:30:13.728Z,91.50
2019-05-06T01:32:43.631Z,91.90
2019-05-06T01:35:09.959Z,91.70
2019-05-06T01:37:36.596Z,91.50
2019-05-06T01:40:04.423Z,91.40
2019-05-06T01:42:34.480Z,91.60
2019-05-06T01:45:00.698Z,92.10
2019-05-06T01:47:30.715Z,91.50
2019-05-06T01:50:01.060Z,90.40
2019-05-06T01:52:29.475Z,90.60
2019-05-06T01:54:56.035Z,90.90
2019-05-06T01:57:24.415Z,91.60
2019-05-06T01:59:54.025Z,90.80
2019-05-06T02:02:24.018Z,91.10
2019-05-06T02:04:50.878Z,91.60
2019-05-06T02:07:23.929Z,91.00
2019-05-06T02:09:54.466Z,92.20
2019-05-06T02:12:20.749Z,92.00
2019-05-06T02:14:47.678Z,92.40
2019-05-06T02:17:14.600Z,93.80
2019-05-06T02:19:43.664Z,94.50
2019-05-06T02:22:10.058Z,94.40
2019-05-06T02:24:38.952Z,94.50
2019-05-06T02:27:06.151Z,94.50
2019-05-06T02:29:34.860Z,94.70
2019-05-06T02:32:19.903Z,94.80
2019-05-06T02:34:30.477Z,94.60
2019-05-06T02:37:25.155Z,95.50
2019-05-06T02:39:33.923Z,96.60
2019-05-06T02:42:04.394Z,97.80
2019-05-06T02:44:33.760Z,98.00
2019-05-06T02:47:05.397Z,97.70
2019-05-06T02:49:35.441Z,98.00
2019-05-06T02:52:03.308Z,97.40
2019-05-06T02:54:34.535Z,97.10
2019-05-06T02:57:04.269Z,97.60
2019-05-06T02:59:33.146Z,98.50
2019-05-06T03:02:03.366Z,98.10
2019-05-06T03:04:32.941Z,98.40
2019-05-06T03:06:59.476Z,97.20
2019-05-06T03:09:27.161Z,97.60
2019-05-06T03:11:54.234Z,98.50
2019-05-06T03:14:23.381Z,97.40
2019-05-06T03:16:53.732Z,96.50
2019-05-06T03:19:24.059Z,97.60
2019-05-06T03:21:54.716Z,98.50
2019-05-06T03:24:23.828Z,97.20
2019-05-06T03:26:56.741Z,98.50
2019-05-06T03:29:25.356Z,98.40
2019-05-06T03:31:56.639Z,98.40
2019-05-06T03:34:42.990Z,98.30
2019-05-06T03:36:56.260Z,97.90
2019-05-06T03:39:19.898Z,98.00
2019-05-06T03:41:48.548Z,98.40
2019-05-06T03:44:19.650Z,97.50
2019-05-06T03:46:46.616Z,97.30
2019-05-06T03:49:13.555Z,97.40
2019-05-06T03:51:43.146Z,97.30
2019-05-06T03:54:12.979Z,96.50
2019-05-06T03:56:43.314Z,96.20
2019-05-06T03:59:13.339Z,96.40
2019-05-06T04:01:45.030Z,96.30
2019-05-06T04:04:15.120Z,96.50
2019-05-06T04:06:44.565Z,95.80
2019-05-06T04:09:13.256Z,95.70
2019-05-06T04:11:43.347Z,95.80
2019-05-06T04:14:13.994Z,95.90
2019-05-06T04:16:43.758Z,96.00
2019-05-06T04:19:09.083Z,95.90
2019-05-06T04:21:39.290Z,95.10
2019-05-06T04:24:07.832Z,94.80
2019-05-06T04:26:37.583Z,94.00
2019-05-06T04:29:05.713Z,93.80
2019-05-06T04:31:35.981Z,93.20
2019-05-06T04:34:12.801Z,94.10
2019-05-06T04:36:33.859Z,94.20
2019-05-06T04:39:05.424Z,94.00
2019-05-06T04:41:34.084Z,94.10
2019-05-06T04:44:02.905Z,93.20
2019-05-06T04:46:29.096Z,93.10
2019-05-06T04:48:55.949Z,92.80
2019-05-06T04:51:24.780Z,92.40
2019-05-06T04:53:53.675Z,92.20
2019-05-06T04:56:19.703Z,91.70
2019-05-06T04:58:46.637Z,91.80
2019-05-06T05:01:15.732Z,91.40
2019-05-06T05:03:42.770Z,91.30
2019-05-06T05:06:09.707Z,91.70
2019-05-06T05:08:36.823Z,91.00
2019-05-06T05:11:03.746Z,91.10
2019-05-06T05:13:32.764Z,90.20
2019-05-06T05:15:59.038Z,90.70
2019-05-06T05:18:25.696Z,90.10
2019-05-06T05:20:52.848Z,90.60
2019-05-06T05:23:19.597Z,91.20
2019-05-06T05:25:46.185Z,88.90
2019-05-06T05:28:13.695Z,90.00
2019-05-06T05:30:42.785Z,88.70
2019-05-06T05:33:08.855Z,86.20
2019-05-06T05:35:36.034Z,86.80
2019-05-06T05:38:03.039Z,87.90
2019-05-06T05:40:32.066Z,88.60
2019-05-06T05:42:58.433Z,90.00
2019-05-06T05:45:25.113Z,86.70
2019-05-06T05:47:52.271Z,86.70
2019-05-06T05:50:19.550Z,86.30
2019-05-06T05:52:46.147Z,88.00
2019-05-06T05:55:13.365Z,84.90
2019-05-06T05:57:39.956Z,85.40
2019-05-06T06:00:06.813Z,86.70
2019-05-06T06:02:33.581Z,87.90
2019-05-06T06:05:02.519Z,85.70
2019-05-06T06:07:28.893Z,84.50
2019-05-06T06:09:56.497Z,83.70
2019-05-06T06:12:23.267Z,83.90
2019-05-06T06:14:53.416Z,83.30
2019-05-06T06:17:18.410Z,84.40
2019-05-06T06:19:45.078Z,81.20
2019-05-06T06:22:11.861Z,81.30
2019-05-06T06:24:38.545Z,81.60
2019-05-06T06:27:06.230Z,80.10
2019-05-06T06:29:34.895Z,80.80
2019-05-06T06:32:04.557Z,80.10
2019-05-06T06:34:34.810Z,80.10
2019-05-06T06:37:02.575Z,78.30
2019-05-06T06:39:29.373Z,79.10
2019-05-06T06:41:56.002Z,79.40
2019-05-06T06:44:22.835Z,80.20
2019-05-06T06:46:49.710Z,78.90
2019-05-06T06:49:17.125Z,80.60
2019-05-06T06:51:43.779Z,79.70
2019-05-06T06:54:12.317Z,77.70
2019-05-06T06:56:39.862Z,77.70
2019-05-06T06:59:07.166Z,77.10
2019-05-06T07:01:34.082Z,77.90
2019-05-06T07:04:06.785Z,75.80
2019-05-06T07:06:28.987Z,76.20
2019-05-06T07:08:55.589Z,76.50
2019-05-06T07:11:22.615Z,74.70
2019-05-06T07:13:49.538Z,74.50
2019-05-06T07:16:16.621Z,78.70
2019-05-06T07:18:43.253Z,75.30
2019-05-06T07:21:13.869Z,73.10
2019-05-06T07:23:41.949Z,73.30
2019-05-06T07:26:08.368Z,74.10
2019-05-06T07:28:35.089Z,74.10
2019-05-06T07:31:17.468Z,71.60
2019-05-06T07:33:33.213Z,72.70
2019-05-06T07:35:59.394Z,71.30
2019-05-06T07:38:26.434Z,70.70
2019-05-06T07:40:53.872Z,72.10
2019-05-06T07:43:22.029Z,73.80
2019-05-06T07:45:48.919Z,69.50
2019-05-06T07:48:15.660Z,72.70
2019-05-06T07:50:42.617Z,70.10
2019-05-06T07:53:09.514Z,71.50
2019-05-06T07:55:36.450Z,68.20
2019-05-06T07:58:03.217Z,69.60
2019-05-06T08:00:32.555Z,69.40
2019-05-06T08:02:58.603Z,67.80
2019-05-06T08:05:25.304Z,68.30
2019-05-06T08:07:55.065Z,67.40
2019-05-06T08:10:22.257Z,67.10
2019-05-06T08:12:49.107Z,65.90
2019-05-06T08:15:16.030Z,65.40
2019-05-06T08:17:42.700Z,66.00
2019-05-06T08:20:09.593Z,63.70
2019-05-06T08:22:36.192Z,62.50
2019-05-06T08:25:03.576Z,61.40
2019-05-06T08:27:32.592Z,61.80
2019-05-06T08:29:59.158Z,63.80
2019-05-06T08:32:25.786Z,61.80
2019-05-06T08:34:52.648Z,60.90
2019-05-06T08:37:19.287Z,61.30
2019-05-06T08:39:46.567Z,59.50
2019-05-06T08:42:13.584Z,60.70
2019-05-06T08:44:42.567Z,58.00
2019-05-06T08:47:08.792Z,59.90
2019-05-06T08:49:35.585Z,59.00
2019-05-06T08:52:02.593Z,56.80
2019-05-06T08:54:29.235Z,58.30
2019-05-06T08:56:56.207Z,58.80
2019-05-06T08:59:24.029Z,59.20
2019-05-06T09:01:53.377Z,59.00
2019-05-06T09:04:19.632Z,60.70
2019-05-06T09:06:46.232Z,60.30
2019-05-06T09:09:13.431Z,59.40
2019-05-06T09:11:40.074Z,58.60
2019-05-06T09:14:09.643Z,58.50
2019-05-06T09:16:35.398Z,60.20
2019-05-06T09:19:04.425Z,58.50
2019-05-06T09:21:30.407Z,58.70
2019-05-06T09:23:56.998Z,59.10
2019-05-06T09:26:23.842Z,57.00
2019-05-06T09:28:52.964Z,55.70
2019-05-06T09:31:19.245Z,57.90
2019-05-06T09:33:45.855Z,57.40
2019-05-06T09:36:12.871Z,57.40
2019-05-06T09:38:39.736Z,58.20
2019-05-06T09:41:06.617Z,56.90
2019-05-06T09:43:33.511Z,57.40
2019-05-06T09:46:02.299Z,58.50
2019-05-06T09:48:28.879Z,56.80
2019-05-06T09:50:55.960Z,56.60
2019-05-06T09:53:23.172Z,56.40
2019-05-06T09:55:52.200Z,57.20
2019-05-06T09:58:19.465Z,58.20
2019-05-06T10:00:46.076Z,56.80
2019-05-06T10:03:13.098Z,56.70
2019-05-06T10:05:39.767Z,57.20
2019-05-06T10:08:07.270Z,56.30
2019-05-06T10:10:33.871Z,57.60
2019-05-06T10:13:02.562Z,59.40
2019-05-06T10:15:29.065Z,56.50
2019-05-06T10:17:55.801Z,57.00
2019-05-06T10:20:22.455Z,58.90
2019-05-06T10:22:49.119Z,56.40
2019-05-06T10:25:16.029Z,56.30
2019-05-06T10:27:42.906Z,57.20
2019-05-06T10:30:12.366Z,56.40
2019-05-06T10:32:38.345Z,56.10
2019-05-06T10:35:07.116Z,56.80
2019-05-06T10:37:34.713Z,55.70
2019-05-06T10:40:03.190Z,57.00
2019-05-06T10:42:42.985Z,57.10
2019-05-06T10:45:08.569Z,56.70
2019-05-06T10:47:37.474Z,57.30
2019-05-06T10:50:04.082Z,56.90
2019-05-06T10:52:35.050Z,56.20
2019-05-06T10:55:03.392Z,56.80
2019-05-06T10:57:32.638Z,56.50
2019-05-06T10:59:58.629Z,55.80
2019-05-06T11:02:27.566Z,55.00
2019-05-06T11:04:54.266Z,56.10
2019-05-06T11:07:29.387Z,55.70
2019-05-06T11:09:53.241Z,55.70
2019-05-06T11:12:22.156Z,55.90
2019-05-06T11:14:55.336Z,54.70
2019-05-06T11:17:23.291Z,56.20
2019-05-06T11:19:53.338Z,54.70
2019-05-06T11:22:24.723Z,54.80
2019-05-06T11:24:54.688Z,55.10
2019-05-06T11:27:31.100Z,56.20
2019-05-06T11:29:52.908Z,56.10
2019-05-06T11:32:21.878Z,57.30
2019-05-06T11:34:49.283Z,56.20
2019-05-06T11:37:16.427Z,55.40
2019-05-06T11:39:43.293Z,55.30
2019-05-06T11:42:25.000Z,55.10
2019-05-06T11:44:43.883Z,56.00
2019-05-06T11:47:09.288Z,56.20
2019-05-06T11:49:36.436Z,55.70
2019-05-06T11:52:03.334Z,56.00
2019-05-06T11:54:29.932Z,56.50
2019-05-06T11:56:58.620Z,57.20
2019-05-06T11:59:25.636Z,57.20
2019-05-06T12:01:53.402Z,57.40
2019-05-06T12:04:23.335Z,57.50
2019-05-06T12:06:52.610Z,58.20
2019-05-06T12:09:19.019Z,56.60
2019-05-06T12:11:45.978Z,56.90
2019-05-06T12:14:13.599Z,57.60
2019-05-06T12:16:40.923Z,56.70
2019-05-06T12:19:07.535Z,58.30
2019-05-06T12:21:34.147Z,58.20
2019-05-06T12:24:02.882Z,56.30
2019-05-06T12:26:29.309Z,56.10
2019-05-06T12:28:57.358Z,59.00
2019-05-06T12:31:23.932Z,56.90
2019-05-06T12:33:53.524Z,57.90
2019-05-06T12:36:22.772Z,58.70
2019-05-06T12:38:52.444Z,59.00
2019-05-06T12:41:18.244Z,58.30
2019-05-06T12:43:45.360Z,58.00
2019-05-06T12:46:13.267Z,59.40
2019-05-06T12:48:43.820Z,58.70
2019-05-06T12:51:09.686Z,58.70
2019-05-06T12:53:36.853Z,57.80
2019-05-06T12:56:03.600Z,60.20
2019-05-06T12:58:30.362Z,58.30
2019-05-06T13:00:57.269Z,57.00
2019-05-06T13:03:23.908Z,60.80
2019-05-06T13:05:52.137Z,58.20
2019-05-06T13:08:21.058Z,57.20
2019-05-06T13:10:47.931Z,57.60
2019-05-06T13:13:16.548Z,59.50
2019-05-06T13:15:46.507Z,58.30
2019-05-06T13:18:13.707Z,57.60
2019-05-06T13:20:49.125Z,57.10
2019-05-06T13:23:17.278Z,59.60
2019-05-06T13:25:42.271Z,57.90
2019-05-06T13:28:07.586Z,58.50
2019-05-06T13:30:34.179Z,58.20
2019-05-06T13:33:03.823Z,57.20
2019-05-06T13:35:29.483Z,59.00
2019-05-06T13:37:56.441Z,58.10
2019-05-06T13:40:26.869Z,58.40
2019-05-06T13:42:52.829Z,57.30
2019-05-06T13:45:19.483Z,58.60
2019-05-06T13:47:46.401Z,59.60
2019-05-06T13:50:13.075Z,58.80
2019-05-06T13:52:39.656Z,57.80
2019-05-06T13:55:06.376Z,57.70
2019-05-06T13:57:33.534Z,58.40
2019-05-06T14:00:02.896Z,58.20
2019-05-06T14:02:28.916Z,59.90
2019-05-06T14:04:55.802Z,58.70
2019-05-06T14:07:24.383Z,59.40
2019-05-06T14:09:53.004Z,58.30
2019-05-06T14:12:21.658Z,58.10
2019-05-06T14:14:48.098Z,58.80
2019-05-06T14:17:14.686Z,59.40
2019-05-06T14:19:43.060Z,59.90
2019-05-06T14:22:12.333Z,58.10
2019-05-06T14:24:38.631Z,56.40
2019-05-06T14:27:05.540Z,56.40
2019-05-06T14:29:32.948Z,55.50
2019-05-06T14:31:59.986Z,56.60
2019-05-06T14:34:27.267Z,57.20
2019-05-06T14:36:53.939Z,57.10
2019-05-06T14:39:23.648Z,55.80
2019-05-06T14:41:48.918Z,56.30
2019-05-06T14:44:15.695Z,55.30
2019-05-06T14:46:42.653Z,56.00
2019-05-06T14:49:09.683Z,56.00
2019-05-06T14:51:36.268Z,55.30
2019-05-06T14:54:03.124Z,55.80
2019-05-06T14:56:31.910Z,56.40
2019-05-06T14:58:58.082Z,54.40
2019-05-06T15:01:24.958Z,55.40
2019-05-06T15:03:52.391Z,56.00
2019-05-06T15:06:19.084Z,54.70
2019-05-06T15:08:45.720Z,53.90
2019-05-06T15:11:12.698Z,54.70
2019-05-06T15:13:39.347Z,55.00
2019-05-06T15:16:06.251Z,54.60
2019-05-06T15:18:32.899Z,54.10
2019-05-06T15:21:27.496Z,53.90
2019-05-06T15:23:28.064Z,51.70
2019-05-06T15:25:54.738Z,52.90
2019-05-06T15:28:22.607Z,53.40
2019-05-06T15:30:49.336Z,54.20
2019-05-06T15:33:16.451Z,52.40
2019-05-06T15:35:43.273Z,53.50
2019-05-06T15:38:10.119Z,54.10
2019-05-06T15:40:36.928Z,53.50
2019-05-06T15:43:03.805Z,53.80
2019-05-06T15:45:32.376Z,54.00
2019-05-06T15:47:59.265Z,52.30
2019-05-06T15:50:25.891Z,52.30
2019-05-06T15:52:53.895Z,53.30
2019-05-06T15:55:22.593Z,52.00
2019-05-06T15:57:49.524Z,54.40
2019-05-06T16:00:16.123Z,54.70
2019-05-06T16:02:42.893Z,54.50
2019-05-06T16:05:13.858Z,51.80
2019-05-06T16:07:38.527Z,52.40
2019-05-06T16:10:05.269Z,55.00
2019-05-06T16:12:31.857Z,54.20
2019-05-06T16:14:58.722Z,53.30
2019-05-06T16:17:25.378Z,53.40
2019-05-06T16:19:52.039Z,53.50
2019-05-06T16:22:18.627Z,52.90
2019-05-06T16:24:45.703Z,53.40
2019-05-06T16:27:12.512Z,53.70
2019-05-06T16:29:39.172Z,54.60
2019-05-06T16:32:06.079Z,54.10
2019-05-06T16:34:32.847Z,52.40
2019-05-06T16:37:01.939Z,53.70
2019-05-06T16:39:29.020Z,55.30
2019-05-06T16:41:55.627Z,53.80
2019-05-06T16:44:22.228Z,53.10
2019-05-06T16:46:48.854Z,52.10
2019-05-06T16:49:15.442Z,54.40
2019-05-06T16:51:43.965Z,53.40
2019-05-06T16:54:12.353Z,52.80
2019-05-06T16:56:39.195Z,52.30
2019-05-06T16:59:06.186Z,52.90
2019-05-06T17:01:34.515Z,53.70
2019-05-06T17:04:03.112Z,52.80
2019-05-06T17:06:32.474Z,52.70
2019-05-06T17:08:58.333Z,52.80
2019-05-06T17:11:30.352Z,52.90
2019-05-06T17:13:53.411Z,54.40
2019-05-06T17:16:22.083Z,51.70
2019-05-06T17:18:48.577Z,53.80
2019-05-06T17:21:15.429Z,52.50
2019-05-06T17:23:42.437Z,53.00
2019-05-06T17:26:09.016Z,52.90
2019-05-06T17:28:35.883Z,53.80
2019-05-06T17:31:03.669Z,52.60
2019-05-06T17:33:31.493Z,53.50
2019-05-06T17:35:59.444Z,53.40
2019-05-06T17:38:26.083Z,52.50
2019-05-06T17:40:52.700Z,54.50
2019-05-06T17:43:19.452Z,54.20
2019-05-06T17:45:58.341Z,54.40
2019-05-06T17:48:14.892Z,52.40
2019-05-06T17:50:42.023Z,53.40
2019-05-06T17:53:09.162Z,54.10
2019-05-06T17:55:36.738Z,54.40
2019-05-06T17:58:03.732Z,54.70
2019-05-06T18:00:32.346Z,55.00
2019-05-06T18:02:58.751Z,55.20
2019-05-06T18:05:25.488Z,53.40
2019-05-06T18:07:52.134Z,55.00
2019-05-06T18:10:19.352Z,57.00
2019-05-06T18:12:45.947Z,56.20
2019-05-06T18:15:13.426Z,56.00
2019-05-06T18:17:40.325Z,55.50
2019-05-06T18:20:07.082Z,57.10
2019-05-06T18:22:33.825Z,56.80
2019-05-06T18:25:02.237Z,56.80
2019-05-06T18:27:29.070Z,56.50
2019-05-06T18:30:04.354Z,57.40
2019-05-06T18:32:24.018Z,57.90
2019-05-06T18:34:52.700Z,57.30
2019-05-06T18:37:19.241Z,57.70
2019-05-06T18:39:46.135Z,58.00
2019-05-06T18:42:18.972Z,57.60
2019-05-06T18:47:20.590Z,59.40
2019-05-06T18:49:47.185Z,59.10
2019-05-06T18:52:14.913Z,60.50
2019-05-06T18:54:42.935Z,60.00
2019-05-06T18:57:09.615Z,57.40
2019-05-06T18:59:37.151Z,58.90
2019-05-06T19:02:03.878Z,58.50
2019-05-06T19:04:30.476Z,58.70
2019-05-06T19:07:09.350Z,58.50
2019-05-06T19:09:25.828Z,59.60
2019-05-06T19:11:54.481Z,60.00
2019-05-06T19:14:21.944Z,60.00
2019-05-06T19:16:52.159Z,61.00
2019-05-06T19:19:17.211Z,60.50
2019-05-06T19:21:45.299Z,59.80
2019-05-06T19:24:13.468Z,61.10
2019-05-06T19:26:40.059Z,63.80
2019-05-06T19:29:06.704Z,63.20
2019-05-06T19:34:07.674Z,63.20
2019-05-06T19:36:34.956Z,63.00
2019-05-06T19:39:02.218Z,63.80
2019-05-06T19:41:30.259Z,61.80
2019-05-06T19:43:56.906Z,63.00
2019-05-06T19:46:23.806Z,63.30
2019-05-06T19:48:52.417Z,64.20
2019-05-06T19:51:19.408Z,65.10
2019-05-06T19:53:46.113Z,66.00
2019-05-06T19:56:12.849Z,64.70
2019-05-06T19:58:40.231Z,66.70
2019-05-06T20:01:06.992Z,66.70
2019-05-06T20:03:33.858Z,66.60
2019-05-06T20:06:02.299Z,68.10
2019-05-06T20:08:29.673Z,68.00
2019-05-06T20:10:56.365Z,68.00
2019-05-06T20:13:23.277Z,67.80
2019-05-06T20:15:52.079Z,69.10
2019-05-06T20:18:18.505Z,69.50
2019-05-06T20:20:45.151Z,71.00
2019-05-06T20:23:12.676Z,69.80
2019-05-06T20:25:39.660Z,70.10
2019-05-06T20:28:06.244Z,70.80
2019-05-06T20:30:33.869Z,70.00
2019-05-06T20:33:00.520Z,70.70
2019-05-06T20:35:27.385Z,71.50
2019-05-06T20:37:54.287Z,71.20
2019-05-06T20:40:22.866Z,73.30
2019-05-06T20:42:49.790Z,73.20
2019-05-06T20:45:16.474Z,75.20
2019-05-06T20:47:43.124Z,74.10
2019-05-06T20:50:09.728Z,74.80
2019-05-06T20:52:37.166Z,74.30
2019-05-06T20:55:12.612Z,74.10
2019-05-06T20:57:32.158Z,74.60
2019-05-06T20:59:58.992Z,75.90
2019-05-06T21:02:25.982Z,76.20
2019-05-06T21:04:52.700Z,77.50
2019-05-06T21:07:19.347Z,80.10
2019-05-06T21:09:45.950Z,78.30
2019-05-06T21:12:12.589Z,77.70
2019-05-06T21:14:41.938Z,76.80
2019-05-06T21:17:09.151Z,78.40
2019-05-06T21:19:35.771Z,81.60
2019-05-06T21:22:03.002Z,80.70
2019-05-06T21:24:29.577Z,78.60
2019-05-06T21:26:58.217Z,79.40
2019-05-06T21:29:24.886Z,80.40
2019-05-06T21:31:53.080Z,80.90
2019-05-06T21:34:22.207Z,79.70
2019-05-06T21:36:50.642Z,79.80
2019-05-06T21:39:16.991Z,80.10
2019-05-06T21:41:43.584Z,80.00
2019-05-06T21:44:13.213Z,79.70
2019-05-06T21:46:40.061Z,80.00
2019-05-06T21:49:06.761Z,80.40
2019-05-06T21:51:33.566Z,81.30
2019-05-06T21:54:02.666Z,82.80
2019-05-06T21:56:28.617Z,82.50
2019-05-06T21:58:55.459Z,82.50
2019-05-06T22:01:23.335Z,83.30
2019-05-06T22:03:50.067Z,82.20
2019-05-06T22:06:17.160Z,84.00
2019-05-06T22:08:44.021Z,85.30
2019-05-06T22:11:11.072Z,84.30
2019-05-06T22:13:38.185Z,85.70
2019-05-06T22:16:05.088Z,85.70
2019-05-06T22:18:31.708Z,85.00
2019-05-06T22:20:59.097Z,84.50
2019-05-06T22:23:25.992Z,86.30
2019-05-06T22:25:52.599Z,84.60
2019-05-06T22:28:19.187Z,85.70
2019-05-06T22:30:45.789Z,87.00
2019-05-06T22:33:13.483Z,89.60
2019-05-06T22:35:40.454Z,89.50
2019-05-06T22:38:07.762Z,89.60
2019-05-06T22:40:34.350Z,87.40
2019-05-06T22:43:03.072Z,87.30
2019-05-06T22:45:29.437Z,87.60
2019-05-06T22:47:56.080Z,90.30
2019-05-06T22:50:23.192Z,91.50
2019-05-06T22:52:49.777Z,91.20
2019-05-06T22:55:16.939Z,90.50
2019-05-06T22:57:43.539Z,90.50
2019-05-06T23:00:12.569Z,90.10
2019-05-06T23:02:38.973Z,90.10
2019-05-06T23:05:06.279Z,91.00
2019-05-06T23:07:34.080Z,90.50
2019-05-06T23:10:00.810Z,91.30
2019-05-06T23:12:27.682Z,90.50
2019-05-06T23:14:54.261Z,90.10
2019-05-06T23:17:21.094Z,90.30
2019-05-06T23:19:47.703Z,90.50
2019-05-06T23:22:14.297Z,90.00
2019-05-06T23:24:41.076Z,91.30
2019-05-06T23:27:07.687Z,91.30
2019-05-06T23:29:34.262Z,91.80
2019-05-06T23:32:02.995Z,91.50
2019-05-06T23:34:30.023Z,90.90
2019-05-06T23:36:56.650Z,91.60
2019-05-06T23:39:23.658Z,91.40
2019-05-06T23:41:50.301Z,90.80
2019-05-06T23:44:17.118Z,90.70
2019-05-06T23:46:44.001Z,90.80
2019-05-06T23:49:12.901Z,90.90
2019-05-06T23:51:39.135Z,90.70
2019-05-06T23:54:05.873Z,90.90
2019-05-06T23:56:32.628Z,91.60
2019-05-06T23:59:00.941Z,91.10
